createdAt,value
2023-02-21T00:00:42.031Z,7.41
2023-02-21T00:05:46.217Z,7.41
2023-02-21T00:10:50.327Z,7.38
2023-02-21T00:15:54.474Z,7.36
2023-02-21T00:20:58.629Z,7.35
2023-02-21T00:26:02.816Z,7.34
2023-02-21T00:31:07.104Z,7.33
2023-02-21T00:36:11.143Z,7.32
2023-02-21T00:41:15.585Z,7.31
2023-02-21T00:46:19.481Z,7.29
2023-02-21T00:51:23.590Z,7.27
2023-02-21T00:56:27.794Z,7.27
2023-02-21T01:01:31.951Z,7.24
2023-02-21T01:06:36.084Z,7.21
2023-02-21T01:11:40.261Z,7.21
2023-02-21T01:21:48.623Z,7.19
2023-02-21T01:26:50.880Z,7.15
2023-02-21T01:31:54.994Z,7.13
2023-02-21T01:36:57.309Z,7.11
2023-02-21T01:42:01.452Z,7.11
2023-02-21T01:47:05.651Z,7.08
2023-02-21T01:52:09.779Z,7.07
2023-02-21T01:57:13.930Z,7.06
2023-02-21T02:02:18.105Z,7.04
2023-02-21T02:07:22.250Z,7.05
2023-02-21T02:12:26.449Z,7.05
2023-02-21T02:17:30.598Z,7.06
2023-02-21T02:22:34.738Z,7.05
2023-02-21T02:27:38.939Z,7.05
2023-02-21T02:32:43.089Z,7.06
2023-02-21T02:37:47.235Z,7.07
2023-02-21T02:42:51.410Z,7.08
2023-02-21T02:47:55.553Z,7.07
2023-02-21T02:52:59.722Z,7.07
2023-02-21T02:58:03.904Z,7.08
2023-02-21T03:03:08.042Z,7.06
2023-02-21T03:08:12.379Z,7.06
2023-02-21T03:18:20.575Z,7.04
2023-02-21T03:23:24.708Z,7.05
2023-02-21T03:28:26.997Z,7.04
2023-02-21T03:33:31.152Z,7.04
2023-02-21T03:38:35.292Z,7.04
2023-02-21T03:43:39.438Z,7.03
2023-02-21T03:48:43.629Z,7.02
2023-02-21T03:53:47.803Z,7.02
2023-02-21T03:58:51.956Z,7.03
2023-02-21T04:03:56.120Z,7.03
2023-02-21T04:09:00.300Z,7.03
2023-02-21T04:14:04.474Z,7.04
2023-02-21T04:19:08.651Z,7.05
2023-02-21T04:24:12.779Z,7.05
2023-02-21T04:29:16.911Z,7.05
2023-02-21T04:34:21.069Z,7.06
2023-02-21T04:39:25.271Z,7.07
2023-02-21T04:44:29.420Z,7.08
2023-02-21T04:49:33.600Z,7.10
2023-02-21T04:54:37.739Z,7.10
2023-02-21T04:59:41.909Z,7.09
2023-02-21T05:04:46.053Z,7.10
2023-02-21T05:09:50.241Z,7.07
2023-02-21T05:14:52.502Z,7.08
2023-02-21T05:19:56.687Z,7.08
2023-02-21T05:24:58.913Z,7.06
2023-02-21T05:30:03.307Z,7.06
2023-02-21T05:35:05.456Z,7.05
2023-02-21T05:40:09.558Z,7.05
2023-02-21T05:45:13.708Z,7.05
2023-02-21T05:50:17.848Z,7.07
2023-02-21T05:55:22.011Z,7.07
2023-02-21T06:00:26.188Z,7.08
2023-02-21T06:05:30.358Z,7.08
2023-02-21T06:10:34.486Z,7.09
2023-02-21T06:15:38.683Z,7.09
2023-02-21T06:20:42.807Z,7.11
2023-02-21T06:25:47.009Z,7.11
2023-02-21T06:30:51.329Z,7.10
2023-02-21T06:35:55.346Z,7.10
2023-02-21T06:40:59.472Z,7.09
2023-02-21T06:46:03.766Z,7.06
2023-02-21T06:51:07.797Z,7.06
2023-02-21T06:56:11.949Z,7.06
2023-02-21T07:01:16.562Z,7.04
2023-02-21T07:06:20.298Z,7.05
2023-02-21T07:11:24.428Z,7.05
2023-02-21T07:16:28.602Z,7.05
2023-02-21T07:21:30.944Z,7.05
2023-02-21T07:26:35.099Z,7.04
2023-02-21T07:31:37.382Z,7.05
2023-02-21T07:36:41.464Z,7.08
2023-02-21T07:41:45.661Z,7.11
2023-02-21T07:46:49.900Z,7.14
2023-02-21T07:51:53.981Z,7.16
2023-02-21T07:56:58.155Z,7.16
2023-02-21T08:02:02.335Z,7.18
2023-02-21T08:07:06.482Z,7.18
2023-02-21T08:12:11.631Z,7.20
2023-02-21T08:17:14.790Z,7.21
2023-02-21T08:22:18.981Z,7.20
2023-02-21T08:27:23.119Z,7.19
2023-02-21T08:32:27.325Z,7.20
2023-02-21T08:37:31.450Z,7.17
2023-02-21T08:42:35.580Z,7.14
2023-02-21T08:47:39.752Z,7.14
2023-02-21T08:52:43.940Z,7.14
2023-02-21T08:57:48.080Z,7.13
2023-02-21T09:02:52.261Z,7.10
2023-02-21T09:07:56.397Z,7.11
2023-02-21T09:13:00.596Z,7.12
2023-02-21T09:18:02.862Z,7.16
2023-02-21T09:23:07.011Z,7.19
2023-02-21T09:28:09.312Z,7.18
2023-02-21T09:33:13.434Z,7.17
2023-02-21T09:38:17.632Z,7.21
2023-02-21T09:43:21.772Z,7.19
2023-02-21T09:48:26.457Z,7.19
2023-02-21T09:53:30.090Z,7.21
2023-02-21T09:58:34.228Z,7.24
2023-02-21T10:03:38.436Z,7.28
2023-02-21T10:08:42.573Z,7.31
2023-02-21T10:13:46.717Z,7.37
2023-02-21T10:18:50.894Z,7.37
2023-02-21T10:23:55.081Z,7.39
2023-02-21T10:28:59.250Z,7.47
2023-02-21T10:34:03.418Z,7.50
2023-02-21T10:39:07.550Z,7.52
2023-02-21T10:44:11.718Z,7.55
2023-02-21T10:49:15.871Z,7.57
2023-02-21T10:54:20.004Z,7.65
2023-02-21T10:59:24.256Z,7.65
2023-02-21T11:04:28.337Z,7.74
2023-02-21T11:09:32.497Z,7.75
2023-02-21T11:14:34.781Z,7.77
2023-02-21T11:19:38.974Z,7.84
2023-02-21T11:24:41.253Z,8.02
2023-02-21T11:29:45.349Z,8.29
2023-02-21T11:34:49.591Z,8.55
2023-02-21T11:39:53.729Z,8.72
2023-02-21T11:44:57.862Z,8.83
2023-02-21T11:50:02.070Z,8.87
2023-02-21T11:55:06.187Z,8.90
2023-02-21T12:00:10.346Z,8.86
2023-02-21T12:05:14.525Z,8.81
2023-02-21T12:10:18.645Z,8.88
2023-02-21T12:15:22.877Z,8.89
2023-02-21T12:20:27.005Z,8.95
2023-02-21T12:25:31.158Z,8.90
2023-02-21T12:30:35.348Z,8.93
2023-02-21T12:35:39.630Z,8.84
2023-02-21T12:40:43.667Z,8.74
2023-02-21T12:45:47.794Z,8.71
2023-02-21T12:50:51.987Z,8.71
2023-02-21T12:55:56.153Z,8.69
2023-02-21T13:01:00.254Z,8.66
2023-02-21T13:06:04.445Z,8.69
2023-02-21T13:11:06.716Z,8.70
2023-02-21T13:16:10.916Z,8.68
2023-02-21T13:21:15.400Z,8.75
2023-02-21T13:26:19.198Z,8.72
2023-02-21T13:31:23.419Z,8.82
2023-02-21T13:36:27.568Z,8.79
2023-02-21T13:41:31.682Z,8.84
2023-02-21T13:46:35.868Z,8.84
2023-02-21T13:51:39.980Z,8.82
2023-02-21T13:56:44.166Z,8.79
2023-02-21T14:01:48.330Z,8.75
2023-02-21T14:06:52.494Z,8.68
2023-02-21T14:11:56.669Z,8.66
2023-02-21T14:17:00.826Z,8.69
2023-02-21T14:22:04.972Z,8.66
2023-02-21T14:27:12.010Z,8.64
2023-02-21T14:32:13.416Z,8.60
2023-02-21T14:37:17.433Z,8.62
2023-02-21T14:42:21.652Z,8.56
2023-02-21T14:47:25.808Z,8.57
2023-02-21T14:52:29.918Z,8.49
2023-02-21T14:57:32.208Z,8.49
2023-02-21T15:02:36.370Z,8.43
2023-02-21T15:07:40.519Z,8.43
2023-02-21T15:12:44.874Z,8.45
2023-02-21T15:17:48.870Z,8.39
2023-02-21T15:22:53.029Z,8.37
2023-02-21T15:27:57.154Z,8.35
2023-02-21T15:33:01.364Z,8.31
2023-02-21T15:38:05.543Z,8.29
2023-02-21T15:43:09.689Z,8.26
2023-02-21T15:48:13.823Z,8.26
2023-02-21T15:53:18.029Z,8.22
2023-02-21T15:58:22.150Z,8.22
2023-02-21T16:03:26.362Z,8.18
2023-02-21T16:08:28.599Z,8.15
2023-02-21T16:13:32.760Z,8.13
2023-02-21T16:18:36.902Z,8.09
2023-02-21T16:23:41.075Z,8.08
2023-02-21T16:28:45.206Z,8.05
2023-02-21T16:33:49.380Z,8.04
2023-02-21T16:38:53.548Z,8.01
2023-02-21T16:43:55.838Z,7.99
2023-02-21T16:49:00.089Z,7.96
2023-02-21T16:54:02.273Z,7.93
2023-02-21T16:59:06.444Z,7.90
2023-02-21T17:04:08.818Z,7.88
2023-02-21T17:09:12.862Z,7.87
2023-02-21T17:14:17.019Z,7.85
2023-02-21T17:19:21.170Z,7.83
2023-02-21T17:24:25.372Z,7.81
2023-02-21T17:29:29.506Z,7.78
2023-02-21T17:34:33.689Z,7.75
2023-02-21T17:39:37.825Z,7.74
2023-02-21T17:44:42.037Z,7.73
2023-02-21T17:49:46.174Z,7.70
2023-02-21T17:54:50.325Z,7.66
2023-02-21T17:59:54.467Z,7.61
2023-02-21T18:04:58.645Z,7.57
2023-02-21T18:10:02.809Z,7.53
2023-02-21T18:15:06.981Z,7.51
2023-02-21T18:20:11.134Z,7.50
2023-02-21T18:25:15.338Z,7.50
2023-02-21T18:30:19.497Z,7.48
2023-02-21T18:35:23.639Z,7.47
2023-02-21T18:40:27.818Z,7.45
2023-02-21T18:45:31.992Z,7.39
2023-02-21T18:50:34.235Z,7.36
2023-02-21T18:55:38.396Z,7.34
2023-02-21T19:00:40.707Z,7.34
2023-02-21T19:05:44.824Z,7.32
2023-02-21T19:10:48.962Z,7.32
2023-02-21T19:15:53.162Z,7.30
2023-02-21T19:20:57.321Z,7.30
2023-02-21T19:26:01.456Z,7.27
2023-02-21T19:31:05.633Z,7.23
2023-02-21T19:36:09.816Z,7.21
2023-02-21T19:41:14.103Z,7.14
2023-02-21T19:46:18.121Z,7.16
2023-02-21T19:51:22.290Z,7.17
2023-02-21T19:56:26.436Z,7.20
2023-02-21T20:01:30.655Z,7.21
2023-02-21T20:06:34.776Z,7.23
2023-02-21T20:11:38.960Z,7.24
2023-02-21T20:16:43.136Z,7.24
2023-02-21T20:21:47.244Z,7.24
2023-02-21T20:26:51.406Z,7.23
2023-02-21T20:31:55.597Z,7.21
2023-02-21T20:36:59.708Z,7.21
2023-02-21T20:42:03.869Z,7.19
2023-02-21T20:47:06.163Z,7.16
2023-02-21T20:52:10.311Z,7.15
2023-02-21T20:57:14.480Z,7.15
2023-02-21T21:02:16.736Z,7.12
2023-02-21T21:07:20.908Z,7.11
2023-02-21T21:12:25.077Z,7.07
2023-02-21T21:17:29.226Z,7.01
2023-02-21T21:22:33.440Z,6.97
2023-02-21T21:27:37.682Z,6.95
2023-02-21T21:32:41.758Z,6.87
2023-02-21T21:37:45.935Z,6.84
2023-02-21T21:42:50.086Z,6.81
2023-02-21T21:47:54.203Z,6.79
2023-02-21T21:52:58.498Z,6.74
2023-02-21T21:58:02.546Z,6.73
2023-02-21T22:03:06.723Z,6.70
2023-02-21T22:08:10.870Z,6.68
2023-02-21T22:13:15.047Z,6.68
2023-02-21T22:18:19.235Z,6.67
2023-02-21T22:23:23.361Z,6.66
2023-02-21T22:28:27.656Z,6.57
2023-02-21T22:33:31.681Z,6.56
2023-02-21T22:38:35.848Z,6.55
2023-02-21T22:43:40.008Z,6.53
2023-02-21T22:48:42.289Z,6.51
2023-02-21T22:53:46.453Z,6.45
2023-02-21T22:58:48.736Z,6.41
2023-02-21T23:03:52.860Z,6.42
2023-02-21T23:08:57.048Z,6.42
2023-02-21T23:14:01.234Z,6.40
2023-02-21T23:19:05.352Z,6.35
2023-02-21T23:24:09.499Z,6.29
2023-02-21T23:29:13.848Z,6.28
2023-02-21T23:34:17.855Z,6.30
2023-02-21T23:39:22.032Z,6.28
2023-02-21T23:44:26.170Z,6.29
2023-02-21T23:49:30.343Z,6.29
2023-02-21T23:54:34.528Z,6.28
2023-02-21T23:59:38.664Z,6.29
